Latest Coastal Weather Observations for Cocos Island

IDW60701

Issued at 8:53 pm WST Friday 21 July 2017 (issued every 10 minutes, with the page automatically refreshed every 10 minutes)

About coastal observations | Map of coastal stations | Coastal observations for WA | Marine services | Other Formats
Station Details ID: 200284 Name: COCOS ISLAND AIRPORT Lat: -12.19 Lon: 96.83 Height: 3.0 m
Data from the previous 72 hours. | See also: Recent months at Cocos Island
Date/Time
WST
Temp
°C
Wind Pressure Rain since
9am
mm
Weather Cloud Vis
km
Sea
Height
m
Swell
Dir  Spd
kts
Gust
kts
hPa Trend Height
m
Period
s
Dir
21/08:30pm 25.5 ESE 18 21 1015.1 - 0.0 - Partly cloudy 9 - - - -
21/08:00pm 25.5 SE 17 23 1014.6 - 0.0 - Cloudy 10 - - - -
21/07:30pm 25.6 SE 20 24 1014.3 - 0.0 - Partly cloudy 10 - - - -
21/07:00pm 25.8 SE 19 25 1014.0 - 0.0 - Partly cloudy 10 - - - -
21/06:30pm 25.9 SE 20 24 1013.7 - 0.0 - Partly cloudy 10 - - - -
21/06:00pm 26.0 SE 19 24 1013.6 - 0.0 - Partly cloudy 10 - - - -
21/05:30pm 26.3 SE 19 23 1013.3 - 0.0 - Partly cloudy 10 - - - -
21/05:00pm 26.5 ESE 19 23 1013.1 - 0.0 - Mostly clear 10 - - - -
21/04:30pm 26.6 SE 19 25 1013.2 - 0.0 - Mostly clear 10 - - - -
21/04:00pm 26.7 SE 19 24 1013.3 - 0.0 - Partly cloudy 10 - - - -
21/03:30pm 26.9 SE 18 24 1013.6 - 0.0 - Partly cloudy 10 - - - -
21/03:00pm 26.9 SE 20 25 1013.9 - 0.0 - Partly cloudy 10 - - - -
21/02:30pm 26.9 SE 21 26 1014.2 - 0.0 - Mostly clear 10 - - - -
21/02:00pm 26.7 SE 20 24 1014.5 - 0.0 - Partly cloudy 10 - - - -
21/01:30pm 26.9 SE 20 27 1014.8 - 0.0 - Partly cloudy 10 - - - -
21/01:00pm 26.6 SE 21 27 1015.1 - 0.0 - Partly cloudy 10 - - - -
21/12:30pm 26.3 SE 22 26 1015.3 - 0.0 - Partly cloudy 10 - - - -
21/12:00pm 26.0 SE 21 27 1015.2 - 0.0 - Partly cloudy 10 - - - -
21/11:30am 25.9 SE 21 27 1015.6 - 0.0 - Partly cloudy 10 - - - -
21/11:00am 25.9 SE 21 26 1015.6 - 0.2 - Cloudy 10 - - - -
21/10:30am 25.5 SE 19 26 1015.5 - 0.2 - Partly cloudy 10 - - - -
21/10:00am 25.2 SE 18 25 1015.3 - 0.2 - Partly cloudy 10 - - - -
21/09:30am 25.7 ESE 20 28 1015.0 - 0.2 - Partly cloudy 10 - - - -
21/09:00am 25.1 SE 19 26 1014.6 - 0.2 - Partly cloudy 10 - - - -
21/08:30am 25.2 SE 19 25 1014.3 - 0.2 - Partly cloudy 10 - - - -
21/08:00am 25.3 SE 19 23 1014.0 - 0.2 - Partly cloudy 10 - - - -
21/07:30am 25.2 SE 19 24 1013.8 - 0.2 - Partly cloudy 10 - - - -
21/07:00am 25.4 ESE 15 20 1013.7 - 0.2 - Partly cloudy 10 - - - -
21/06:30am 25.3 ESE 17 23 1013.5 - 0.2 - Partly cloudy 10 - - - -
21/06:00am 25.3 ESE 19 25 1013.4 - 0.2 - Partly cloudy 10 - - - -
21/05:30am 25.3 ESE 19 24 1013.2 - 0.2 - Partly cloudy 10 - - - -
21/05:00am 25.4 ESE 19 23 1013.1 - 0.2 - Mostly clear 10 - - - -
21/04:30am 25.4 ESE 18 25 1013.4 - 0.2 - Partly cloudy 10 - - - -
21/04:19am 25.4 ESE 19 24 1013.5 - 0.2 - Partly cloudy 10 - - - -
21/04:00am 25.4 ESE 19 23 1013.7 - 0.2 - Partly cloudy 4 - - - -
21/03:58am 25.4 SE 18 22 1013.7 - 0.2 - Partly cloudy 6 - - - -
21/03:30am 25.5 SE 18 22 1014.0 - 0.2 - Partly cloudy 10 - - - -
21/03:00am 25.5 SE 20 25 1014.2 - 0.2 - Partly cloudy 10 - - - -
21/02:30am 25.5 SE 20 25 1014.4 - 0.2 - Partly cloudy 10 - - - -
21/02:00am 25.5 SE 18 24 1014.7 - 0.2 - Partly cloudy 10 - - - -
21/01:30am 25.3 SE 19 23 1015.0 - 0.2 - Partly cloudy 10 - - - -
21/01:00am 25.4 SE 18 23 1015.3 - 0.2 - Partly cloudy 10 - - - -
21/12:30am 25.3 SE 18 23 1015.3 - 0.2 - Partly cloudy 10 - - - -
21/12:00am 25.5 SE 18 25 1015.6 - 0.2 - Partly cloudy 10 - - - -
 
Date/Time
WST
Temp
°C
Wind Pressure Rain since
9am
mm
Weather Cloud Vis
km
Sea
Height
m
Swell
Dir  Spd
kts
Gust
kts
hPa Trend Height
m
Period
s
Dir
20/11:30pm 25.4 ESE 20 24 1015.6 - 0.2 - Partly cloudy 10 - - - -
20/11:00pm 25.5 ESE 20 27 1015.5 - 0.2 - Cloudy 10 - - - -
20/10:30pm 25.4 SE 19 24 1015.4 - 0.2 - - 10 - - - -
20/10:00pm 25.4 SE 20 24 1015.3 - 0.2 - - 10 - - - -
20/09:30pm 25.3 SE 19 24 1015.2 - 0.2 - Partly cloudy 10 - - - -
20/09:00pm 25.2 SE 19 25 1015.0 - 0.2 - Partly cloudy 10 - - - -
20/08:46pm 24.9 SE 18 28 1014.8 - 0.2 - Partly cloudy 10 - - - -
20/08:30pm 25.4 SE 17 26 1014.6 - 0.2 - Partly cloudy 10 - - - -
20/08:27pm 25.4 SE 16 26 1014.5 - 0.2 - Partly cloudy 10 - - - -
20/08:00pm 25.6 SE 19 25 1014.0 - 0.2 - Cloudy 10 - - - -
20/07:55pm 25.6 SE 19 25 1014.0 - 0.2 - Partly cloudy 10 - - - -
20/07:36pm 25.8 SE 18 23 1013.7 - 0.2 - Partly cloudy 6 - - - -
20/07:30pm 25.9 SE 18 23 1013.7 - 0.2 - Partly cloudy 10 - - - -
20/07:00pm 26.0 SE 18 24 1013.4 - 0.2 - Partly cloudy 10 - - - -
20/06:30pm 25.7 SE 18 26 1013.2 - 0.2 - Partly cloudy 10 - - - -
20/06:00pm 25.7 SE 18 24 1013.1 - 0.2 - Partly cloudy 10 - - - -
20/05:30pm 26.0 SE 17 22 1012.8 - 0.2 - Partly cloudy 10 - - - -
20/05:00pm 25.7 SE 18 22 1012.6 - 0.2 - Cloudy 10 - - - -
20/04:30pm 25.8 SE 20 29 1012.5 - 0.2 - Mostly clear 10 - - - -
20/04:00pm 25.4 ESE 19 25 1012.6 - 0.2 - Mostly clear 10 - - - -
20/03:46pm 25.1 SE 17 27 1012.6 - 0.2 Showers Partly cloudy 10 - - - -
20/03:37pm 25.0 SE 19 27 1012.8 - 0.2 Showers Mostly cloudy 6 - - - -
20/03:30pm 26.4 SE 17 20 1012.7 - 0.2 Showers Partly cloudy 10 - - - -
20/03:00pm 26.4 SE 16 22 1013.2 - 0.0 - Mostly clear 10 - - - -
20/02:30pm 25.8 SE 19 25 1013.6 - 0.0 Showers Mostly cloudy 10 - - - -
20/02:00pm 26.1 SE 17 21 1013.7 - 0.0 - Cloudy 10 - - - -
20/01:30pm 24.5 SE 20 32 1014.1 - 0.0 Showers Partly cloudy 9 - - - -
20/01:25pm 25.6 SE 20 32 1014.0 - 0.0 Showers Partly cloudy 4 - - - -
20/01:00pm 26.0 SE 20 24 1014.4 - 0.0 - Mostly clear 10 - - - -
20/12:30pm 25.6 SE 19 25 1014.6 - 0.0 - Mostly clear 10 - - - -
20/12:00pm 24.7 ESE 20 28 1015.0 - 0.0 Showers Mostly cloudy 10 - - - -
20/11:30am 25.8 SE 20 27 1015.0 - 0.0 - Partly cloudy 10 - - - -
20/11:00am 25.8 SE 21 27 1015.1 - 2.0 - Cloudy 10 - - - -
20/10:30am 26.0 SE 19 25 1015.2 - 2.0 - Partly cloudy 10 - - - -
20/10:00am 24.3 SE 21 31 1015.2 - 2.0 Showers Mostly cloudy 10 - - - -
20/09:52am 25.0 SE 17 29 1015.1 - 2.0 - Partly cloudy 10 - - - -
20/09:30am 25.3 SE 18 24 1014.8 - 2.0 - Mostly cloudy 10 - - - -
20/09:06am 24.5 SE 20 30 1014.6 - 2.0 - Partly cloudy 10 - - - -
20/09:00am 24.4 SE 18 23 1014.5 - 2.0 - Mostly clear 10 - - - -
20/08:35am 23.8 SE 19 29 1014.5 - 2.0 - Partly cloudy 10 - - - -
20/08:30am 23.7 SE 23 29 1014.5 - 2.0 - Partly cloudy 10 - - - -
20/08:16am 24.0 SE 19 29 1014.3 - 2.0 - Partly cloudy 5 - - - -
20/08:10am 23.6 SE 19 28 1014.4 - 2.0 - Partly cloudy 6 - - - -
20/08:07am 24.3 SE 18 28 1014.3 - 2.0 - Partly cloudy 10 - - - -
20/08:00am 24.8 SSE 16 23 1013.9 - 1.8 - Cloudy 10 - - - -
20/07:30am 24.4 SE 16 22 1013.9 - 1.8 - Partly cloudy 10 - - - -
20/07:00am 24.0 SE 18 25 1013.8 - 1.8 - Partly cloudy 10 - - - -
20/06:30am 24.4 ESE 20 26 1013.7 - 1.8 - Partly cloudy 10 - - - -
20/06:15am 24.4 ESE 17 27 1013.6 - 1.8 - Partly cloudy 10 - - - -
20/06:00am 24.7 SE 18 23 1013.5 - 1.8 - Partly cloudy 10 - - - -
20/05:30am 24.9 SE 19 26 1013.5 - 1.8 - Partly cloudy 10 - - - -
20/05:12am 24.6 SE 17 25 1013.6 - 1.8 - Partly cloudy 10 - - - -
20/05:00am 24.5 SE 18 28 1013.6 - 1.8 - Cloudy 6 - - - -
20/04:59am 24.4 SE 18 28 1013.7 - 1.8 - Partly cloudy 6 - - - -
20/04:56am 24.1 SE 19 28 1013.7 - 1.8 - Partly cloudy 6 - - - -
20/04:30am 25.2 SSE 18 24 1013.7 - 1.8 - Partly cloudy 10 - - - -
20/04:00am 25.2 SE 17 23 1013.9 - 1.8 - Partly cloudy 10 - - - -
20/03:30am 25.2 SE 18 23 1013.9 - 1.8 - Partly cloudy 10 - - - -
20/03:26am 25.1 SE 18 25 1014.0 - 1.8 - Partly cloudy 10 - - - -
20/03:01am 25.0 SE 19 25 1014.3 - 1.8 - Partly cloudy 5 - - - -
20/03:00am 25.2 SE 20 25 1014.3 - 1.8 - Partly cloudy 10 - - - -
20/02:30am 25.2 SE 20 25 1014.8 - 1.8 - Partly cloudy 10 - - - -
20/02:29am 25.1 SE 19 25 1014.8 - 1.8 - Partly cloudy 10 - - - -
20/02:17am 24.3 SE 15 23 1014.9 - 1.8 - Partly cloudy 6 - - - -
20/02:08am 23.8 SE 17 27 1015.1 - 1.8 - Partly cloudy 8 - - - -
20/02:00am 24.3 SE 17 23 1015.0 - 1.8 - Cloudy 10 - - - -
20/01:30am 23.9 SE 20 26 1015.5 - 1.8 - Partly cloudy 10 - - - -
20/01:28am 24.0 SE 20 26 1015.6 - 1.8 - Partly cloudy 10 - - - -
20/01:00am 23.2 E 17 24 1015.9 - 1.0 - Partly cloudy 2 - - - -
20/12:49am 23.6 E 16 27 1015.7 - 0.2 - Partly cloudy 4 - - - -
20/12:47am 23.8 E 15 24 1015.7 - 0.2 - Partly cloudy 5 - - - -
20/12:30am 25.4 SE 17 23 1015.7 - 0.2 - Partly cloudy 10 - - - -
20/12:00am 25.4 SE 19 24 1015.9 - 0.2 - Partly cloudy 10 - - - -
 
Date/Time
WST
Temp
°C
Wind Pressure Rain since
9am
mm
Weather Cloud Vis
km
Sea
Height
m
Swell
Dir  Spd
kts
Gust
kts
hPa Trend Height
m
Period
s
Dir
19/11:30pm 25.5 SE 18 25 1015.9 - 0.2 - Partly cloudy 10 - - - -
19/11:00pm 25.4 SE 20 27 1015.7 - 0.2 - Cloudy 10 - - - -
19/10:30pm 25.5 SE 19 26 1015.6 - 0.2 - Partly cloudy 10 - - - -
19/10:14pm 25.2 SE 17 27 1015.4 - 0.2 - Partly cloudy 10 - - - -
19/10:00pm 25.2 SE 18 24 1015.3 - 0.2 - Partly cloudy 10 - - - -
19/09:30pm 25.3 SE 19 24 1015.2 - 0.2 - Partly cloudy 10 - - - -
19/09:00pm 25.5 SE 20 27 1014.9 - 0.2 - Partly cloudy 10 - - - -
19/08:30pm 25.6 SE 18 25 1014.4 - 0.2 - Partly cloudy 10 - - - -
19/08:00pm 25.6 SE 20 26 1013.9 - 0.2 - Cloudy 10 - - - -
19/07:30pm 25.6 SE 19 24 1013.8 - 0.2 - Partly cloudy 10 - - - -
19/07:05pm 25.7 SE 21 27 1013.6 - 0.2 - Partly cloudy 10 - - - -
19/07:00pm 25.8 SE 20 27 1013.6 - 0.2 - Partly cloudy 10 - - - -
19/06:46pm 25.8 SE 20 27 1013.5 - 0.2 - Partly cloudy 6 - - - -
19/06:30pm 26.0 SE 20 27 1013.4 - 0.2 - Partly cloudy 10 - - - -
19/06:00pm 26.1 SE 19 27 1013.2 - 0.2 - Partly cloudy 10 - - - -
19/05:30pm 26.6 SE 19 25 1012.9 - 0.2 - Partly cloudy 10 - - - -
19/05:00pm 26.6 SE 19 25 1012.9 - 0.2 - Cloudy 10 - - - -
19/04:30pm 26.8 SE 20 25 1013.0 - 0.2 - Partly cloudy 10 - - - -
19/04:00pm 26.7 SE 20 25 1013.1 - 0.2 - Mostly cloudy 10 - - - -
19/03:30pm 26.8 SE 20 27 1013.3 - 0.2 - Mostly cloudy 10 - - - -
19/03:00pm 26.9 SE 22 27 1013.7 - 0.2 - Partly cloudy 10 - - - -
19/02:30pm 26.3 SE 22 28 1014.2 - 0.2 - Partly cloudy 10 - - - -
19/02:00pm 26.4 SE 21 27 1014.3 - 0.2 - Cloudy 10 - - - -
19/01:30pm 26.6 SE 21 26 1014.6 - 0.2 - Partly cloudy 10 - - - -
19/01:00pm 26.3 SE 20 26 1014.8 - 0.2 - Mostly cloudy 10 - - - -
19/12:30pm 26.5 SE 21 26 1015.0 - 0.2 - Mostly cloudy 10 - - - -
19/12:00pm 26.2 SE 23 28 1015.4 - 0.0 - Partly cloudy 10 - - - -
19/11:30am 26.0 SE 22 29 1015.6 - 0.0 - Mostly cloudy 10 - - - -
19/11:00am 25.8 SE 24 31 1015.5 - 1.0 - Cloudy 10 - - - -
19/10:30am 25.8 SE 21 26 1015.7 - 1.0 - Partly cloudy 10 - - - -
19/10:00am 25.5 SE 23 30 1015.6 - 1.0 - Partly cloudy 10 - - - -
19/09:30am 25.5 SE 24 30 1015.3 - 1.0 - Partly cloudy 10 - - - -
19/09:00am 24.9 SE 22 28 1015.1 - 1.0 - Partly cloudy 10 - - - -
19/08:30am 24.5 SE 22 29 1014.7 - 1.0 - Partly cloudy 10 - - - -
19/08:00am 24.4 SE 22 28 1014.1 - 1.0 - Mostly cloudy 10 - - - -
19/07:30am 24.5 SE 20 29 1013.9 - 1.0 - Partly cloudy 10 - - - -
19/07:00am 24.3 SE 19 26 1013.8 - 1.0 - Partly cloudy 10 - - - -
19/06:30am 24.2 SSE 17 26 1013.8 - 1.0 - Partly cloudy 10 - - - -
19/06:00am 23.4 SE 20 28 1013.7 - 1.0 - Partly cloudy 10 - - - -
19/05:55am 23.3 SE 23 30 1013.8 - 1.0 - Partly cloudy 10 - - - -
19/05:36am 23.4 ESE 18 28 1013.8 - 1.0 - Partly cloudy 6 - - - -
19/05:30am 24.6 SE 19 27 1013.8 - 0.6 - Partly cloudy 10 - - - -
19/05:00am 25.4 SE 19 24 1013.6 - 0.6 - Cloudy 10 - - - -
19/04:30am 25.2 SE 20 26 1014.0 - 0.6 - Partly cloudy 10 - - - -
19/04:00am 24.9 SE 20 25 1014.3 - 0.6 - Partly cloudy 10 - - - -
19/03:30am 24.5 SE 20 29 1014.7 - 0.6 - Partly cloudy 10 - - - -
19/03:22am 25.0 SE 19 29 1014.8 - 0.6 - Partly cloudy 10 - - - -
19/03:00am 24.7 SE 20 29 1014.9 - 0.6 - Partly cloudy 10 - - - -
19/02:30am 25.2 SE 19 26 1015.1 - 0.6 - Partly cloudy 10 - - - -
19/02:29am 25.2 SE 19 26 1015.1 - 0.6 - Partly cloudy 10 - - - -
19/02:10am 25.3 SE 19 25 1015.3 - 0.6 - Partly cloudy 5 - - - -
19/02:00am 25.4 SE 19 25 1015.4 - 0.6 - Cloudy 10 - - - -
19/01:30am 25.4 SE 19 25 1015.9 - 0.6 - Partly cloudy 10 - - - -
19/01:00am 25.5 SE 20 26 1016.3 - 0.6 - Partly cloudy 10 - - - -
19/12:30am 25.7 SE 20 27 1016.4 - 0.6 - Partly cloudy 10 - - - -
19/12:00am 25.5 SE 19 24 1016.5 - 0.6 - Partly cloudy 10 - - - -
 
Date/Time
WST
Temp
°C
Wind Pressure Rain since
9am
mm
Weather Cloud Vis
km
Sea
Height
m
Swell
Dir  Spd
kts
Gust
kts
hPa Trend Height
m
Period
s
Dir
18/11:30pm 25.5 SE 22 28 1016.5 - 0.6 - Partly cloudy 10 - - - -
18/11:00pm 25.3 SE 21 26 1016.6 - 0.6 - Partly cloudy 10 - - - -
18/10:30pm 25.0 SE 19 24 1016.7 - 0.6 - Partly cloudy 10 - - - -

Other Formats:

Comma delimited format used in spreadsheet applications
http://www.bom.gov.au/fwo/IDW60701/IDW60701.96996.axf

JavaScript Object Notation format (JSON) in row-major order
http://www.bom.gov.au/fwo/IDW60701/IDW60701.96996.json